sensor_id;sensor_type;location;lat;lon;timestamp;temperature;humidity
35746;DHT22;21870;42.812;74.628;2023-05-10T00:01:40;15.70;90.70
35746;DHT22;21870;42.812;74.628;2023-05-10T00:04:06;15.60;92.60
35746;DHT22;21870;42.812;74.628;2023-05-10T00:06:32;15.70;93.30
35746;DHT22;21870;42.812;74.628;2023-05-10T00:08:58;15.70;93.50
35746;DHT22;21870;42.812;74.628;2023-05-10T00:11:24;15.70;93.70
35746;DHT22;21870;42.812;74.628;2023-05-10T00:13:50;15.70;93.20
35746;DHT22;21870;42.812;74.628;2023-05-10T00:16:16;15.70;94.10
35746;DHT22;21870;42.812;74.628;2023-05-10T00:18:42;15.70;93.10
35746;DHT22;21870;42.812;74.628;2023-05-10T00:21:08;15.80;92.40
35746;DHT22;21870;42.812;74.628;2023-05-10T00:23:34;15.80;94.40
35746;DHT22;21870;42.812;74.628;2023-05-10T00:26:00;15.80;94.40
35746;DHT22;21870;42.812;74.628;2023-05-10T00:28:28;15.90;92.40
35746;DHT22;21870;42.812;74.628;2023-05-10T00:30:55;16.10;91.00
35746;DHT22;21870;42.812;74.628;2023-05-10T00:33:21;16.10;90.90
35746;DHT22;21870;42.812;74.628;2023-05-10T00:35:47;16.10;91.00
35746;DHT22;21870;42.812;74.628;2023-05-10T00:38:13;16.20;89.80
35746;DHT22;21870;42.812;74.628;2023-05-10T00:40:39;16.30;90.30
35746;DHT22;21870;42.812;74.628;2023-05-10T00:43:06;16.30;91.50
35746;DHT22;21870;42.812;74.628;2023-05-10T00:45:33;16.30;92.10
35746;DHT22;21870;42.812;74.628;2023-05-10T00:48:02;16.30;91.50
35746;DHT22;21870;42.812;74.628;2023-05-10T00:50:30;16.40;91.60
35746;DHT22;21870;42.812;74.628;2023-05-10T00:52:58;16.50;91.30
35746;DHT22;21870;42.812;74.628;2023-05-10T00:55:25;16.50;90.80
35746;DHT22;21870;42.812;74.628;2023-05-10T00:57:52;16.70;89.80
35746;DHT22;21870;42.812;74.628;2023-05-10T01:00:18;16.90;90.00
35746;DHT22;21870;42.812;74.628;2023-05-10T01:02:46;17.00;88.80
35746;DHT22;21870;42.812;74.628;2023-05-10T01:05:12;17.40;83.40
35746;DHT22;21870;42.812;74.628;2023-05-10T01:07:39;17.60;83.00
35746;DHT22;21870;42.812;74.628;2023-05-10T01:10:09;17.80;83.10
35746;DHT22;21870;42.812;74.628;2023-05-10T01:12:38;18.00;85.60
35746;DHT22;21870;42.812;74.628;2023-05-10T01:15:07;18.10;82.30
35746;DHT22;21870;42.812;74.628;2023-05-10T01:17:35;18.30;82.30
35746;DHT22;21870;42.812;74.628;2023-05-10T01:20:03;18.50;82.40
35746;DHT22;21870;42.812;74.628;2023-05-10T01:23:09;18.60;82.50
35746;DHT22;21870;42.812;74.628;2023-05-10T01:34:25;19.00;85.80
35746;DHT22;21870;42.812;74.628;2023-05-10T01:37:07;19.10;86.50
35746;DHT22;21870;42.812;74.628;2023-05-10T01:39:47;19.20;85.10
35746;DHT22;21870;42.812;74.628;2023-05-10T01:42:21;19.30;84.40
35746;DHT22;21870;42.812;74.628;2023-05-10T01:45:13;19.40;85.30
35746;DHT22;21870;42.812;74.628;2023-05-10T01:48:04;19.50;84.50
35746;DHT22;21870;42.812;74.628;2023-05-10T01:50:32;19.70;84.20
35746;DHT22;21870;42.812;74.628;2023-05-10T01:53:00;19.90;83.10
35746;DHT22;21870;42.812;74.628;2023-05-10T01:55:35;20.10;82.40
35746;DHT22;21870;42.812;74.628;2023-05-10T01:58:09;20.30;82.10
35746;DHT22;21870;42.812;74.628;2023-05-10T02:00:37;20.50;81.30
35746;DHT22;21870;42.812;74.628;2023-05-10T02:03:07;20.70;81.00
35746;DHT22;21870;42.812;74.628;2023-05-10T02:05:35;20.90;81.30
35746;DHT22;21870;42.812;74.628;2023-05-10T02:08:05;21.10;79.70
35746;DHT22;21870;42.812;74.628;2023-05-10T02:10:34;21.30;79.40
35746;DHT22;21870;42.812;74.628;2023-05-10T02:13:01;21.50;79.60
35746;DHT22;21870;42.812;74.628;2023-05-10T02:15:28;21.70;79.70
35746;DHT22;21870;42.812;74.628;2023-05-10T02:17:56;22.00;76.30
35746;DHT22;21870;42.812;74.628;2023-05-10T02:20:24;22.10;75.30
35746;DHT22;21870;42.812;74.628;2023-05-10T02:22:52;22.40;74.90
35746;DHT22;21870;42.812;74.628;2023-05-10T02:25:21;22.50;73.90
35746;DHT22;21870;42.812;74.628;2023-05-10T02:27:48;22.60;73.10
35746;DHT22;21870;42.812;74.628;2023-05-10T02:30:15;22.70;73.60
35746;DHT22;21870;42.812;74.628;2023-05-10T02:32:43;22.90;75.00
35746;DHT22;21870;42.812;74.628;2023-05-10T02:35:10;23.00;74.30
35746;DHT22;21870;42.812;74.628;2023-05-10T02:37:37;23.10;74.70
35746;DHT22;21870;42.812;74.628;2023-05-10T02:40:05;23.30;75.20
35746;DHT22;21870;42.812;74.628;2023-05-10T02:42:35;23.40;75.50
35746;DHT22;21870;42.812;74.628;2023-05-10T02:45:03;23.50;76.40
35746;DHT22;21870;42.812;74.628;2023-05-10T02:47:31;23.60;77.50
35746;DHT22;21870;42.812;74.628;2023-05-10T02:49:57;23.80;76.80
35746;DHT22;21870;42.812;74.628;2023-05-10T02:52:30;23.80;77.30
35746;DHT22;21870;42.812;74.628;2023-05-10T02:55:03;24.00;77.20
35746;DHT22;21870;42.812;74.628;2023-05-10T02:57:34;24.20;78.90
35746;DHT22;21870;42.812;74.628;2023-05-10T03:00:04;24.40;78.50
35746;DHT22;21870;42.812;74.628;2023-05-10T03:02:31;24.50;77.80
35746;DHT22;21870;42.812;74.628;2023-05-10T03:04:57;24.50;76.20
35746;DHT22;21870;42.812;74.628;2023-05-10T03:07:23;24.50;76.50
35746;DHT22;21870;42.812;74.628;2023-05-10T03:09:50;24.60;75.20
35746;DHT22;21870;42.812;74.628;2023-05-10T03:17:48;24.90;73.60
35746;DHT22;21870;42.812;74.628;2023-05-10T03:20:29;25.00;71.90
35746;DHT22;21870;42.812;74.628;2023-05-10T03:25:48;25.20;71.50
35746;DHT22;21870;42.812;74.628;2023-05-10T03:28:16;25.30;69.00
35746;DHT22;21870;42.812;74.628;2023-05-10T03:30:46;25.40;69.70
35746;DHT22;21870;42.812;74.628;2023-05-10T03:33:13;25.50;69.30
35746;DHT22;21870;42.812;74.628;2023-05-10T03:35:39;25.60;69.10
35746;DHT22;21870;42.812;74.628;2023-05-10T03:38:05;25.60;69.50
35746;DHT22;21870;42.812;74.628;2023-05-10T03:40:31;25.70;69.10
35746;DHT22;21870;42.812;74.628;2023-05-10T03:42:58;25.70;70.20
35746;DHT22;21870;42.812;74.628;2023-05-10T03:45:24;25.80;71.30
35746;DHT22;21870;42.812;74.628;2023-05-10T03:47:50;25.80;71.60
35746;DHT22;21870;42.812;74.628;2023-05-10T03:50:17;25.90;70.40
35746;DHT22;21870;42.812;74.628;2023-05-10T03:52:43;26.00;71.60
35746;DHT22;21870;42.812;74.628;2023-05-10T03:55:10;26.00;72.00
35746;DHT22;21870;42.812;74.628;2023-05-10T03:57:36;26.10;71.70
35746;DHT22;21870;42.812;74.628;2023-05-10T04:00:03;26.10;70.80
35746;DHT22;21870;42.812;74.628;2023-05-10T04:02:30;26.30;70.70
35746;DHT22;21870;42.812;74.628;2023-05-10T04:04:56;26.30;70.70
35746;DHT22;21870;42.812;74.628;2023-05-10T04:07:22;26.30;69.60
35746;DHT22;21870;42.812;74.628;2023-05-10T04:09:48;26.40;68.40
35746;DHT22;21870;42.812;74.628;2023-05-10T04:12:14;26.60;68.10
35746;DHT22;21870;42.812;74.628;2023-05-10T04:14:40;26.70;67.30
35746;DHT22;21870;42.812;74.628;2023-05-10T04:17:07;26.70;67.30
35746;DHT22;21870;42.812;74.628;2023-05-10T04:19:33;26.90;66.30
35746;DHT22;21870;42.812;74.628;2023-05-10T04:21:59;27.10;66.90
35746;DHT22;21870;42.812;74.628;2023-05-10T04:24:25;27.30;66.50
35746;DHT22;21870;42.812;74.628;2023-05-10T04:26:51;27.50;68.00
35746;DHT22;21870;42.812;74.628;2023-05-10T04:29:18;27.60;66.20
35746;DHT22;21870;42.812;74.628;2023-05-10T04:31:44;27.50;65.20
35746;DHT22;21870;42.812;74.628;2023-05-10T04:34:10;27.40;64.00
35746;DHT22;21870;42.812;74.628;2023-05-10T04:36:36;27.50;63.70
35746;DHT22;21870;42.812;74.628;2023-05-10T04:39:03;27.50;64.00
35746;DHT22;21870;42.812;74.628;2023-05-10T04:41:29;27.60;63.60
35746;DHT22;21870;42.812;74.628;2023-05-10T04:43:55;27.60;63.70
35746;DHT22;21870;42.812;74.628;2023-05-10T04:46:21;27.80;63.10
35746;DHT22;21870;42.812;74.628;2023-05-10T04:48:48;27.90;63.70
35746;DHT22;21870;42.812;74.628;2023-05-10T04:51:14;28.10;63.70
35746;DHT22;21870;42.812;74.628;2023-05-10T04:53:40;28.10;63.10
35746;DHT22;21870;42.812;74.628;2023-05-10T04:56:06;28.20;63.50
35746;DHT22;21870;42.812;74.628;2023-05-10T04:58:33;28.40;63.00
35746;DHT22;21870;42.812;74.628;2023-05-10T05:01:08;28.60;62.40
35746;DHT22;21870;42.812;74.628;2023-05-10T05:03:35;28.50;61.10
35746;DHT22;21870;42.812;74.628;2023-05-10T05:06:01;28.40;61.00
35746;DHT22;21870;42.812;74.628;2023-05-10T05:08:27;28.50;61.20
35746;DHT22;21870;42.812;74.628;2023-05-10T05:10:53;28.70;61.80
35746;DHT22;21870;42.812;74.628;2023-05-10T05:13:20;28.70;61.10
35746;DHT22;21870;42.812;74.628;2023-05-10T05:15:46;28.70;62.10
35746;DHT22;21870;42.812;74.628;2023-05-10T05:18:12;28.50;61.40
35746;DHT22;21870;42.812;74.628;2023-05-10T05:20:38;28.60;61.20
35746;DHT22;21870;42.812;74.628;2023-05-10T05:23:04;28.60;60.90
35746;DHT22;21870;42.812;74.628;2023-05-10T05:25:30;28.80;60.50
35746;DHT22;21870;42.812;74.628;2023-05-10T05:27:56;28.90;60.10
35746;DHT22;21870;42.812;74.628;2023-05-10T05:30:22;28.90;59.80
35746;DHT22;21870;42.812;74.628;2023-05-10T05:32:48;29.00;59.50
35746;DHT22;21870;42.812;74.628;2023-05-10T05:35:14;29.30;59.30
35746;DHT22;21870;42.812;74.628;2023-05-10T05:37:41;29.30;60.30
35746;DHT22;21870;42.812;74.628;2023-05-10T05:40:08;29.10;59.70
35746;DHT22;21870;42.812;74.628;2023-05-10T05:42:34;29.20;59.60
35746;DHT22;21870;42.812;74.628;2023-05-10T05:45:00;29.30;58.30
35746;DHT22;21870;42.812;74.628;2023-05-10T05:47:26;29.40;57.60
35746;DHT22;21870;42.812;74.628;2023-05-10T05:49:52;29.40;57.90
35746;DHT22;21870;42.812;74.628;2023-05-10T05:52:18;29.50;58.20
35746;DHT22;21870;42.812;74.628;2023-05-10T05:54:44;29.60;58.40
35746;DHT22;21870;42.812;74.628;2023-05-10T05:57:10;29.70;57.10
35746;DHT22;21870;42.812;74.628;2023-05-10T05:59:36;29.70;58.60
35746;DHT22;21870;42.812;74.628;2023-05-10T06:02:08;29.90;59.60
35746;DHT22;21870;42.812;74.628;2023-05-10T06:04:34;29.90;58.80
35746;DHT22;21870;42.812;74.628;2023-05-10T06:07:00;29.90;58.20
35746;DHT22;21870;42.812;74.628;2023-05-10T06:09:26;29.80;57.40
35746;DHT22;21870;42.812;74.628;2023-05-10T06:11:52;29.80;58.20
35746;DHT22;21870;42.812;74.628;2023-05-10T06:14:20;29.80;57.30
35746;DHT22;21870;42.812;74.628;2023-05-10T06:16:46;29.90;57.00
35746;DHT22;21870;42.812;74.628;2023-05-10T06:19:13;29.80;56.50
35746;DHT22;21870;42.812;74.628;2023-05-10T06:21:39;30.00;56.50
35746;DHT22;21870;42.812;74.628;2023-05-10T06:24:05;30.10;56.00
35746;DHT22;21870;42.812;74.628;2023-05-10T06:26:33;30.20;56.60
35746;DHT22;21870;42.812;74.628;2023-05-10T06:28:59;30.40;56.70
35746;DHT22;21870;42.812;74.628;2023-05-10T06:31:25;30.50;56.20
35746;DHT22;21870;42.812;74.628;2023-05-10T06:33:51;30.50;56.10
35746;DHT22;21870;42.812;74.628;2023-05-10T06:36:17;30.60;56.60
35746;DHT22;21870;42.812;74.628;2023-05-10T06:38:44;30.70;56.00
35746;DHT22;21870;42.812;74.628;2023-05-10T06:41:10;30.70;55.70
35746;DHT22;21870;42.812;74.628;2023-05-10T06:43:36;30.70;57.10
35746;DHT22;21870;42.812;74.628;2023-05-10T06:46:05;30.80;56.20
35746;DHT22;21870;42.812;74.628;2023-05-10T06:48:32;30.90;54.70
35746;DHT22;21870;42.812;74.628;2023-05-10T06:50:58;30.90;55.10
35746;DHT22;21870;42.812;74.628;2023-05-10T06:53:24;30.90;54.60
35746;DHT22;21870;42.812;74.628;2023-05-10T06:55:50;31.30;54.70
35746;DHT22;21870;42.812;74.628;2023-05-10T06:58:16;31.60;55.40
35746;DHT22;21870;42.812;74.628;2023-05-10T07:00:42;31.70;54.50
35746;DHT22;21870;42.812;74.628;2023-05-10T07:03:11;31.80;55.10
35746;DHT22;21870;42.812;74.628;2023-05-10T07:05:37;31.70;54.80
35746;DHT22;21870;42.812;74.628;2023-05-10T07:08:03;31.70;55.20
35746;DHT22;21870;42.812;74.628;2023-05-10T07:10:29;31.60;54.60
35746;DHT22;21870;42.812;74.628;2023-05-10T07:12:55;31.60;54.70
35746;DHT22;21870;42.812;74.628;2023-05-10T07:15:21;31.80;53.90
35746;DHT22;21870;42.812;74.628;2023-05-10T07:17:48;31.70;53.20
35746;DHT22;21870;42.812;74.628;2023-05-10T07:20:14;31.80;54.60
35746;DHT22;21870;42.812;74.628;2023-05-10T07:22:40;32.00;55.10
35746;DHT22;21870;42.812;74.628;2023-05-10T07:25:06;32.20;55.80
35746;DHT22;21870;42.812;74.628;2023-05-10T07:27:32;32.30;56.20
35746;DHT22;21870;42.812;74.628;2023-05-10T07:29:58;32.30;55.90
35746;DHT22;21870;42.812;74.628;2023-05-10T07:32:25;32.30;55.70
35746;DHT22;21870;42.812;74.628;2023-05-10T07:34:51;32.20;54.10
35746;DHT22;21870;42.812;74.628;2023-05-10T07:37:17;32.30;54.70
35746;DHT22;21870;42.812;74.628;2023-05-10T07:39:43;32.40;56.30
35746;DHT22;21870;42.812;74.628;2023-05-10T07:42:09;32.60;54.40
35746;DHT22;21870;42.812;74.628;2023-05-10T07:44:35;32.30;52.80
35746;DHT22;21870;42.812;74.628;2023-05-10T07:47:01;32.10;53.70
35746;DHT22;21870;42.812;74.628;2023-05-10T07:49:27;31.90;53.50
35746;DHT22;21870;42.812;74.628;2023-05-10T07:51:53;32.00;55.80
35746;DHT22;21870;42.812;74.628;2023-05-10T07:54:19;32.20;55.90
35746;DHT22;21870;42.812;74.628;2023-05-10T07:56:46;32.30;55.10
35746;DHT22;21870;42.812;74.628;2023-05-10T07:59:17;32.40;54.90
35746;DHT22;21870;42.812;74.628;2023-05-10T08:01:43;32.40;54.90
35746;DHT22;21870;42.812;74.628;2023-05-10T08:04:10;32.20;54.40
35746;DHT22;21870;42.812;74.628;2023-05-10T08:06:37;32.10;54.00
35746;DHT22;21870;42.812;74.628;2023-05-10T08:09:03;31.90;53.50
35746;DHT22;21870;42.812;74.628;2023-05-10T08:11:29;32.10;53.70
35746;DHT22;21870;42.812;74.628;2023-05-10T08:13:55;32.30;54.10
35746;DHT22;21870;42.812;74.628;2023-05-10T08:16:21;32.40;54.20
35746;DHT22;21870;42.812;74.628;2023-05-10T08:18:48;32.60;53.90
35746;DHT22;21870;42.812;74.628;2023-05-10T08:21:16;32.70;54.80
35746;DHT22;21870;42.812;74.628;2023-05-10T08:23:42;32.90;54.70
35746;DHT22;21870;42.812;74.628;2023-05-10T08:26:09;32.90;54.20
35746;DHT22;21870;42.812;74.628;2023-05-10T08:28:36;32.80;52.70
35746;DHT22;21870;42.812;74.628;2023-05-10T08:31:02;32.60;52.70
35746;DHT22;21870;42.812;74.628;2023-05-10T08:33:28;32.50;52.10
35746;DHT22;21870;42.812;74.628;2023-05-10T08:35:54;32.60;52.80
35746;DHT22;21870;42.812;74.628;2023-05-10T08:38:20;32.60;53.10
35746;DHT22;21870;42.812;74.628;2023-05-10T08:40:49;32.70;52.80
35746;DHT22;21870;42.812;74.628;2023-05-10T08:43:16;32.70;52.60
35746;DHT22;21870;42.812;74.628;2023-05-10T08:45:44;32.60;52.30
35746;DHT22;21870;42.812;74.628;2023-05-10T08:48:15;32.50;52.00
35746;DHT22;21870;42.812;74.628;2023-05-10T08:50:43;32.30;51.90
35746;DHT22;21870;42.812;74.628;2023-05-10T08:53:12;32.30;52.30
35746;DHT22;21870;42.812;74.628;2023-05-10T08:55:39;32.30;52.10
35746;DHT22;21870;42.812;74.628;2023-05-10T08:58:08;32.40;52.90
35746;DHT22;21870;42.812;74.628;2023-05-10T09:00:36;32.40;52.80
35746;DHT22;21870;42.812;74.628;2023-05-10T09:03:05;32.30;52.20
35746;DHT22;21870;42.812;74.628;2023-05-10T09:05:32;32.30;52.90
35746;DHT22;21870;42.812;74.628;2023-05-10T09:07:58;32.50;53.40
35746;DHT22;21870;42.812;74.628;2023-05-10T09:10:30;32.50;53.70
35746;DHT22;21870;42.812;74.628;2023-05-10T09:12:57;32.50;53.50
35746;DHT22;21870;42.812;74.628;2023-05-10T09:15:23;32.50;54.60
35746;DHT22;21870;42.812;74.628;2023-05-10T09:17:50;32.80;54.60
35746;DHT22;21870;42.812;74.628;2023-05-10T09:20:16;33.00;54.50
35746;DHT22;21870;42.812;74.628;2023-05-10T09:22:46;33.10;53.20
35746;DHT22;21870;42.812;74.628;2023-05-10T09:25:15;33.30;52.80
35746;DHT22;21870;42.812;74.628;2023-05-10T09:27:45;33.30;53.40
35746;DHT22;21870;42.812;74.628;2023-05-10T09:30:28;33.40;52.70
35746;DHT22;21870;42.812;74.628;2023-05-10T09:32:56;33.40;53.00
35746;DHT22;21870;42.812;74.628;2023-05-10T09:35:27;33.40;52.90
35746;DHT22;21870;42.812;74.628;2023-05-10T09:37:55;33.20;52.00
35746;DHT22;21870;42.812;74.628;2023-05-10T09:40:23;33.10;53.10
35746;DHT22;21870;42.812;74.628;2023-05-10T09:42:53;32.80;52.10
35746;DHT22;21870;42.812;74.628;2023-05-10T09:45:20;32.70;51.70
35746;DHT22;21870;42.812;74.628;2023-05-10T09:47:47;32.70;52.80
35746;DHT22;21870;42.812;74.628;2023-05-10T09:50:13;32.40;52.50
35746;DHT22;21870;42.812;74.628;2023-05-10T09:52:49;32.40;53.30
35746;DHT22;21870;42.812;74.628;2023-05-10T09:55:18;32.30;52.60
35746;DHT22;21870;42.812;74.628;2023-05-10T09:57:46;32.00;53.20
35746;DHT22;21870;42.812;74.628;2023-05-10T10:00:19;32.00;53.80
35746;DHT22;21870;42.812;74.628;2023-05-10T10:02:55;32.20;53.20
35746;DHT22;21870;42.812;74.628;2023-05-10T10:05:28;32.20;52.80
35746;DHT22;21870;42.812;74.628;2023-05-10T10:07:56;32.20;53.50
35746;DHT22;21870;42.812;74.628;2023-05-10T10:10:24;32.30;53.30
35746;DHT22;21870;42.812;74.628;2023-05-10T10:12:50;32.30;52.30
35746;DHT22;21870;42.812;74.628;2023-05-10T10:15:16;32.50;52.70
35746;DHT22;21870;42.812;74.628;2023-05-10T10:17:43;32.60;52.30
35746;DHT22;21870;42.812;74.628;2023-05-10T10:20:10;32.70;52.10
35746;DHT22;21870;42.812;74.628;2023-05-10T10:22:37;32.60;52.60
35746;DHT22;21870;42.812;74.628;2023-05-10T10:25:04;32.70;51.30
35746;DHT22;21870;42.812;74.628;2023-05-10T10:35:50;32.60;54.80
35746;DHT22;21870;42.812;74.628;2023-05-10T10:38:18;32.50;53.80
35746;DHT22;21870;42.812;74.628;2023-05-10T10:40:44;32.70;54.40
35746;DHT22;21870;42.812;74.628;2023-05-10T10:43:27;32.70;52.60
35746;DHT22;21870;42.812;74.628;2023-05-10T10:46:15;32.70;52.90
35746;DHT22;21870;42.812;74.628;2023-05-10T10:48:50;32.70;51.80
35746;DHT22;21870;42.812;74.628;2023-05-10T10:51:37;32.70;52.90
35746;DHT22;21870;42.812;74.628;2023-05-10T10:54:10;32.60;53.40
35746;DHT22;21870;42.812;74.628;2023-05-10T10:56:36;32.60;53.50
35746;DHT22;21870;42.812;74.628;2023-05-10T10:59:02;32.70;53.10
35746;DHT22;21870;42.812;74.628;2023-05-10T11:01:41;32.40;52.50
35746;DHT22;21870;42.812;74.628;2023-05-10T11:06:36;32.40;54.70
35746;DHT22;21870;42.812;74.628;2023-05-10T11:09:07;32.30;53.70
35746;DHT22;21870;42.812;74.628;2023-05-10T11:11:35;32.20;53.60
35746;DHT22;21870;42.812;74.628;2023-05-10T11:14:07;32.30;52.90
35746;DHT22;21870;42.812;74.628;2023-05-10T11:16:44;32.10;52.60
35746;DHT22;21870;42.812;74.628;2023-05-10T11:19:12;32.00;52.30
35746;DHT22;21870;42.812;74.628;2023-05-10T11:21:49;31.90;52.80
35746;DHT22;21870;42.812;74.628;2023-05-10T11:24:18;31.50;53.60
35746;DHT22;21870;42.812;74.628;2023-05-10T11:26:44;31.30;54.00
35746;DHT22;21870;42.812;74.628;2023-05-10T11:29:13;31.20;54.30
35746;DHT22;21870;42.812;74.628;2023-05-10T11:31:43;31.00;54.10
35746;DHT22;21870;42.812;74.628;2023-05-10T11:34:11;31.00;52.80
35746;DHT22;21870;42.812;74.628;2023-05-10T11:36:38;31.00;54.00
35746;DHT22;21870;42.812;74.628;2023-05-10T11:39:04;30.90;53.50
35746;DHT22;21870;42.812;74.628;2023-05-10T11:41:31;30.90;53.70
35746;DHT22;21870;42.812;74.628;2023-05-10T11:43:58;30.90;55.50
35746;DHT22;21870;42.812;74.628;2023-05-10T11:46:26;30.90;55.90
35746;DHT22;21870;42.812;74.628;2023-05-10T11:48:59;30.80;56.10
35746;DHT22;21870;42.812;74.628;2023-05-10T11:51:27;30.80;55.70
35746;DHT22;21870;42.812;74.628;2023-05-10T11:53:55;30.70;56.60
35746;DHT22;21870;42.812;74.628;2023-05-10T11:56:21;30.80;56.60
35746;DHT22;21870;42.812;74.628;2023-05-10T11:58:56;30.60;55.50
35746;DHT22;21870;42.812;74.628;2023-05-10T12:01:24;30.50;55.10
35746;DHT22;21870;42.812;74.628;2023-05-10T12:03:52;30.40;56.00
35746;DHT22;21870;42.812;74.628;2023-05-10T12:06:19;30.10;55.60
35746;DHT22;21870;42.812;74.628;2023-05-10T12:08:47;30.00;56.00
35746;DHT22;21870;42.812;74.628;2023-05-10T12:11:16;29.90;56.50
35746;DHT22;21870;42.812;74.628;2023-05-10T12:13:44;30.00;57.30
35746;DHT22;21870;42.812;74.628;2023-05-10T12:16:17;30.00;56.60
35746;DHT22;21870;42.812;74.628;2023-05-10T12:18:44;29.90;56.60
35746;DHT22;21870;42.812;74.628;2023-05-10T12:21:12;29.80;56.40
35746;DHT22;21870;42.812;74.628;2023-05-10T12:23:41;29.70;57.00
35746;DHT22;21870;42.812;74.628;2023-05-10T12:26:10;29.70;57.20
35746;DHT22;21870;42.812;74.628;2023-05-10T12:28:37;29.50;56.40
35746;DHT22;21870;42.812;74.628;2023-05-10T12:31:06;29.40;56.60
35746;DHT22;21870;42.812;74.628;2023-05-10T12:33:40;29.40;56.90
35746;DHT22;21870;42.812;74.628;2023-05-10T12:36:15;29.30;57.70
35746;DHT22;21870;42.812;74.628;2023-05-10T12:38:42;29.20;57.10
35746;DHT22;21870;42.812;74.628;2023-05-10T12:41:16;29.10;57.40
35746;DHT22;21870;42.812;74.628;2023-05-10T12:43:43;29.10;57.80
35746;DHT22;21870;42.812;74.628;2023-05-10T12:46:16;29.00;58.20
35746;DHT22;21870;42.812;74.628;2023-05-10T12:48:43;28.90;58.10
35746;DHT22;21870;42.812;74.628;2023-05-10T12:51:09;28.80;57.80
35746;DHT22;21870;42.812;74.628;2023-05-10T12:53:38;28.80;57.50
35746;DHT22;21870;42.812;74.628;2023-05-10T12:56:04;28.80;57.60
35746;DHT22;21870;42.812;74.628;2023-05-10T12:58:31;28.80;58.60
35746;DHT22;21870;42.812;74.628;2023-05-10T13:00:58;28.70;58.00
35746;DHT22;21870;42.812;74.628;2023-05-10T13:03:25;28.70;59.50
35746;DHT22;21870;42.812;74.628;2023-05-10T13:05:51;28.60;58.60
35746;DHT22;21870;42.812;74.628;2023-05-10T13:08:17;28.50;58.70
35746;DHT22;21870;42.812;74.628;2023-05-10T13:10:43;28.40;58.80
35746;DHT22;21870;42.812;74.628;2023-05-10T13:13:09;28.40;58.20
35746;DHT22;21870;42.812;74.628;2023-05-10T13:15:35;28.30;58.80
35746;DHT22;21870;42.812;74.628;2023-05-10T13:18:01;28.20;58.70
35746;DHT22;21870;42.812;74.628;2023-05-10T13:20:28;28.20;59.50
35746;DHT22;21870;42.812;74.628;2023-05-10T13:22:54;28.10;58.90
35746;DHT22;21870;42.812;74.628;2023-05-10T13:25:20;28.00;59.70
35746;DHT22;21870;42.812;74.628;2023-05-10T13:27:46;28.10;60.60
35746;DHT22;21870;42.812;74.628;2023-05-10T13:30:12;27.90;60.90
35746;DHT22;21870;42.812;74.628;2023-05-10T13:32:38;27.80;63.90
35746;DHT22;21870;42.812;74.628;2023-05-10T13:35:05;27.80;61.30
35746;DHT22;21870;42.812;74.628;2023-05-10T13:37:31;27.60;60.30
35746;DHT22;21870;42.812;74.628;2023-05-10T13:39:58;27.60;61.00
35746;DHT22;21870;42.812;74.628;2023-05-10T13:42:24;27.50;59.80
35746;DHT22;21870;42.812;74.628;2023-05-10T13:44:50;27.50;61.10
35746;DHT22;21870;42.812;74.628;2023-05-10T13:47:17;27.40;61.60
35746;DHT22;21870;42.812;74.628;2023-05-10T13:49:43;27.30;62.50
35746;DHT22;21870;42.812;74.628;2023-05-10T13:52:09;27.30;63.40
35746;DHT22;21870;42.812;74.628;2023-05-10T13:54:38;27.20;64.50
35746;DHT22;21870;42.812;74.628;2023-05-10T13:57:04;27.00;67.30
35746;DHT22;21870;42.812;74.628;2023-05-10T13:59:31;26.90;65.20
35746;DHT22;21870;42.812;74.628;2023-05-10T14:01:58;26.70;64.70
35746;DHT22;21870;42.812;74.628;2023-05-10T14:04:24;26.60;64.50
35746;DHT22;21870;42.812;74.628;2023-05-10T14:06:50;26.50;64.30
35746;DHT22;21870;42.812;74.628;2023-05-10T14:09:18;26.30;64.40
35746;DHT22;21870;42.812;74.628;2023-05-10T14:11:45;26.20;64.20
35746;DHT22;21870;42.812;74.628;2023-05-10T14:14:11;26.10;64.40
35746;DHT22;21870;42.812;74.628;2023-05-10T14:16:41;25.90;64.60
35746;DHT22;21870;42.812;74.628;2023-05-10T14:19:07;25.70;64.60
35746;DHT22;21870;42.812;74.628;2023-05-10T14:21:33;25.60;64.80
35746;DHT22;21870;42.812;74.628;2023-05-10T14:23:59;25.50;64.50
35746;DHT22;21870;42.812;74.628;2023-05-10T14:26:25;25.40;64.40
35746;DHT22;21870;42.812;74.628;2023-05-10T14:28:52;25.40;64.30
35746;DHT22;21870;42.812;74.628;2023-05-10T14:31:18;25.30;64.20
35746;DHT22;21870;42.812;74.628;2023-05-10T14:33:46;25.10;64.30
35746;DHT22;21870;42.812;74.628;2023-05-10T14:36:13;25.00;65.10
35746;DHT22;21870;42.812;74.628;2023-05-10T14:38:39;24.90;65.90
35746;DHT22;21870;42.812;74.628;2023-05-10T14:41:06;24.80;66.50
35746;DHT22;21870;42.812;74.628;2023-05-10T14:43:32;24.70;66.90
35746;DHT22;21870;42.812;74.628;2023-05-10T14:45:58;24.50;66.90
35746;DHT22;21870;42.812;74.628;2023-05-10T14:48:24;24.40;66.90
35746;DHT22;21870;42.812;74.628;2023-05-10T14:50:50;24.40;67.40
35746;DHT22;21870;42.812;74.628;2023-05-10T14:53:18;24.20;67.20
35746;DHT22;21870;42.812;74.628;2023-05-10T14:55:44;24.10;66.90
35746;DHT22;21870;42.812;74.628;2023-05-10T14:58:10;24.00;67.10
35746;DHT22;21870;42.812;74.628;2023-05-10T15:00:36;23.90;67.30
35746;DHT22;21870;42.812;74.628;2023-05-10T15:03:03;23.90;66.90
35746;DHT22;21870;42.812;74.628;2023-05-10T15:05:29;23.80;66.40
35746;DHT22;21870;42.812;74.628;2023-05-10T15:07:55;23.80;66.70
35746;DHT22;21870;42.812;74.628;2023-05-10T15:10:21;23.80;66.90
35746;DHT22;21870;42.812;74.628;2023-05-10T15:12:47;23.70;67.00
35746;DHT22;21870;42.812;74.628;2023-05-10T15:15:13;23.70;67.10
35746;DHT22;21870;42.812;74.628;2023-05-10T15:17:40;23.60;67.30
35746;DHT22;21870;42.812;74.628;2023-05-10T15:20:07;23.50;67.70
35746;DHT22;21870;42.812;74.628;2023-05-10T15:22:33;23.40;68.80
35746;DHT22;21870;42.812;74.628;2023-05-10T15:24:59;23.10;70.10
35746;DHT22;21870;42.812;74.628;2023-05-10T15:27:26;22.80;70.60
35746;DHT22;21870;42.812;74.628;2023-05-10T15:29:52;22.60;71.40
35746;DHT22;21870;42.812;74.628;2023-05-10T15:32:18;22.40;71.80
35746;DHT22;21870;42.812;74.628;2023-05-10T15:34:44;22.20;71.80
35746;DHT22;21870;42.812;74.628;2023-05-10T15:37:10;22.10;71.80
35746;DHT22;21870;42.812;74.628;2023-05-10T15:39:36;21.90;71.70
35746;DHT22;21870;42.812;74.628;2023-05-10T15:42:02;21.90;71.80
35746;DHT22;21870;42.812;74.628;2023-05-10T15:44:29;21.80;71.80
35746;DHT22;21870;42.812;74.628;2023-05-10T15:46:55;21.70;72.00